sensor_id;sensor_type;location;lat;lon;timestamp;pressure;altitude;pressure_sealevel;temperature;humidity
51526;BME280;37611;51.794;21.590;2024-01-27T00:00:19;99670.02;;;0.53;100.00
51526;BME280;37611;51.794;21.590;2024-01-27T00:04:41;99676.86;;;0.56;100.00
51526;BME280;37611;51.794;21.590;2024-01-27T00:08:42;99686.39;;;0.58;100.00
51526;BME280;37611;51.794;21.590;2024-01-27T00:12:44;99682.88;;;0.62;100.00
51526;BME280;37611;51.794;21.590;2024-01-27T00:16:46;99688.46;;;0.63;100.00
51526;BME280;37611;51.794;21.590;2024-01-27T00:20:47;99697.39;;;0.69;100.00
51526;BME280;37611;51.794;21.590;2024-01-27T00:24:49;99706.98;;;0.79;100.00
51526;BME280;37611;51.794;21.590;2024-01-27T00:28:50;99711.76;;;0.88;100.00
51526;BME280;37611;51.794;21.590;2024-01-27T00:32:52;99712.27;;;0.93;100.00
51526;BME280;37611;51.794;21.590;2024-01-27T00:36:54;99723.63;;;0.99;100.00
51526;BME280;37611;51.794;21.590;2024-01-27T00:40:55;99729.42;;;1.10;100.00
51526;BME280;37611;51.794;21.590;2024-01-27T00:44:57;99730.77;;;1.32;100.00
51526;BME280;37611;51.794;21.590;2024-01-27T00:48:59;99730.02;;;1.57;100.00
51526;BME280;37611;51.794;21.590;2024-01-27T00:53:01;99737.13;;;1.80;100.00
51526;BME280;37611;51.794;21.590;2024-01-27T00:57:03;99747.94;;;2.09;100.00
51526;BME280;37611;51.794;21.590;2024-01-27T01:01:04;99752.83;;;2.31;100.00
51526;BME280;37611;51.794;21.590;2024-01-27T01:05:06;99763.32;;;2.49;100.00
51526;BME280;37611;51.794;21.590;2024-01-27T01:09:08;99766.75;;;2.62;100.00
51526;BME280;37611;51.794;21.590;2024-01-27T01:13:10;99773.33;;;2.74;100.00
51526;BME280;37611;51.794;21.590;2024-01-27T01:17:12;99782.20;;;2.83;100.00
51526;BME280;37611;51.794;21.590;2024-01-27T01:21:14;99784.76;;;2.88;100.00
51526;BME280;37611;51.794;21.590;2024-01-27T01:25:16;99785.27;;;2.93;100.00
51526;BME280;37611;51.794;21.590;2024-01-27T01:29:17;99797.80;;;2.95;100.00
51526;BME280;37611;51.794;21.590;2024-01-27T01:33:19;99805.45;;;2.97;100.00
51526;BME280;37611;51.794;21.590;2024-01-27T01:37:21;99814.09;;;2.97;100.00
51526;BME280;37611;51.794;21.590;2024-01-27T01:41:22;99810.24;;;2.98;100.00
51526;BME280;37611;51.794;21.590;2024-01-27T01:45:24;99819.53;;;3.01;100.00
51526;BME280;37611;51.794;21.590;2024-01-27T01:49:26;99826.02;;;3.07;100.00
51526;BME280;37611;51.794;21.590;2024-01-27T01:53:28;99832.67;;;3.08;100.00
51526;BME280;37611;51.794;21.590;2024-01-27T01:57:30;99837.73;;;3.07;100.00
51526;BME280;37611;51.794;21.590;2024-01-27T02:01:31;99841.27;;;3.06;100.00
51526;BME280;37611;51.794;21.590;2024-01-27T02:05:33;99855.90;;;3.05;100.00
51526;BME280;37611;51.794;21.590;2024-01-27T02:09:35;99864.11;;;3.01;100.00
51526;BME280;37611;51.794;21.590;2024-01-27T02:13:37;99870.80;;;2.97;100.00
51526;BME280;37611;51.794;21.590;2024-01-27T02:17:39;99878.83;;;2.91;100.00
51526;BME280;37611;51.794;21.590;2024-01-27T02:21:41;99880.08;;;2.88;100.00
51526;BME280;37611;51.794;21.590;2024-01-27T02:25:43;99884.34;;;2.86;100.00
51526;BME280;37611;51.794;21.590;2024-01-27T02:29:45;99881.34;;;2.85;100.00
51526;BME280;37611;51.794;21.590;2024-01-27T02:33:47;99885.64;;;2.82;100.00
51526;BME280;37611;51.794;21.590;2024-01-27T02:37:48;99887.45;;;2.81;100.00
51526;BME280;37611;51.794;21.590;2024-01-27T02:41:50;99889.15;;;2.82;100.00
51526;BME280;37611;51.794;21.590;2024-01-27T02:45:52;99892.49;;;2.84;100.00
51526;BME280;37611;51.794;21.590;2024-01-27T02:49:53;99898.77;;;2.88;100.00
51526;BME280;37611;51.794;21.590;2024-01-27T02:53:55;99905.78;;;2.91;100.00
51526;BME280;37611;51.794;21.590;2024-01-27T02:57:57;99905.29;;;2.93;100.00
51526;BME280;37611;51.794;21.590;2024-01-27T03:01:58;99905.52;;;2.93;100.00
51526;BME280;37611;51.794;21.590;2024-01-27T03:06:00;99911.90;;;2.93;100.00
51526;BME280;37611;51.794;21.590;2024-01-27T03:10:02;99922.48;;;2.93;100.00
51526;BME280;37611;51.794;21.590;2024-01-27T03:14:04;99926.58;;;2.93;100.00
51526;BME280;37611;51.794;21.590;2024-01-27T03:18:06;99928.13;;;2.96;100.00
51526;BME280;37611;51.794;21.590;2024-01-27T03:22:08;99928.05;;;2.97;100.00
51526;BME280;37611;51.794;21.590;2024-01-27T03:26:09;99934.73;;;2.99;100.00
51526;BME280;37611;51.794;21.590;2024-01-27T03:30:12;99940.37;;;2.99;100.00
51526;BME280;37611;51.794;21.590;2024-01-27T03:34:14;99939.05;;;3.01;100.00
51526;BME280;37611;51.794;21.590;2024-01-27T03:38:16;99941.05;;;3.02;100.00
51526;BME280;37611;51.794;21.590;2024-01-27T03:42:17;99951.61;;;3.02;100.00
51526;BME280;37611;51.794;21.590;2024-01-27T03:46:19;99958.87;;;3.02;100.00
51526;BME280;37611;51.794;21.590;2024-01-27T03:50:21;99959.48;;;3.03;100.00
51526;BME280;37611;51.794;21.590;2024-01-27T03:54:22;99958.80;;;3.03;100.00
51526;BME280;37611;51.794;21.590;2024-01-27T03:58:24;99960.11;;;3.04;100.00
51526;BME280;37611;51.794;21.590;2024-01-27T04:02:26;99962.12;;;3.05;100.00
51526;BME280;37611;51.794;21.590;2024-01-27T04:06:27;99968.94;;;3.06;100.00
51526;BME280;37611;51.794;21.590;2024-01-27T04:10:29;99977.08;;;3.06;100.00
51526;BME280;37611;51.794;21.590;2024-01-27T04:14:31;99979.51;;;3.06;100.00
51526;BME280;37611;51.794;21.590;2024-01-27T04:18:32;99987.82;;;3.08;100.00
51526;BME280;37611;51.794;21.590;2024-01-27T04:22:34;99991.19;;;3.10;100.00
51526;BME280;37611;51.794;21.590;2024-01-27T04:26:36;99995.76;;;3.11;100.00
51526;BME280;37611;51.794;21.590;2024-01-27T04:30:38;99998.52;;;3.11;100.00
51526;BME280;37611;51.794;21.590;2024-01-27T04:34:40;100002.77;;;3.12;100.00
51526;BME280;37611;51.794;21.590;2024-01-27T04:38:43;100008.29;;;3.13;100.00
51526;BME280;37611;51.794;21.590;2024-01-27T04:42:45;100011.40;;;3.15;100.00
51526;BME280;37611;51.794;21.590;2024-01-27T04:46:47;100017.45;;;3.15;100.00
51526;BME280;37611;51.794;21.590;2024-01-27T04:50:49;100026.38;;;3.16;100.00
51526;BME280;37611;51.794;21.590;2024-01-27T04:54:52;100025.55;;;3.13;100.00
51526;BME280;37611;51.794;21.590;2024-01-27T04:58:54;100029.28;;;3.09;100.00
51526;BME280;37611;51.794;21.590;2024-01-27T05:02:55;100029.85;;;3.04;100.00
51526;BME280;37611;51.794;21.590;2024-01-27T05:06:59;100031.97;;;3.01;100.00
51526;BME280;37611;51.794;21.590;2024-01-27T05:11:00;100031.70;;;2.97;100.00
51526;BME280;37611;51.794;21.590;2024-01-27T05:15:03;100028.60;;;2.94;100.00
51526;BME280;37611;51.794;21.590;2024-01-27T05:19:04;100035.88;;;2.91;100.00
51526;BME280;37611;51.794;21.590;2024-01-27T05:23:06;100032.55;;;2.86;100.00
51526;BME280;37611;51.794;21.590;2024-01-27T05:27:08;100036.07;;;2.83;100.00
51526;BME280;37611;51.794;21.590;2024-01-27T05:31:09;100038.95;;;2.84;100.00
51526;BME280;37611;51.794;21.590;2024-01-27T05:35:11;100045.48;;;2.82;100.00
51526;BME280;37611;51.794;21.590;2024-01-27T05:39:13;100046.73;;;2.81;100.00
51526;BME280;37611;51.794;21.590;2024-01-27T05:43:15;100051.42;;;2.81;100.00
51526;BME280;37611;51.794;21.590;2024-01-27T05:47:17;100055.58;;;2.81;100.00
51526;BME280;37611;51.794;21.590;2024-01-27T05:51:20;100053.86;;;2.83;100.00
51526;BME280;37611;51.794;21.590;2024-01-27T05:55:22;100057.39;;;2.85;100.00
51526;BME280;37611;51.794;21.590;2024-01-27T05:59:24;100059.91;;;2.86;100.00
51526;BME280;37611;51.794;21.590;2024-01-27T06:03:26;100062.98;;;2.89;100.00
51526;BME280;37611;51.794;21.590;2024-01-27T06:07:27;100070.70;;;2.92;100.00
51526;BME280;37611;51.794;21.590;2024-01-27T06:11:29;100077.52;;;2.94;100.00
51526;BME280;37611;51.794;21.590;2024-01-27T06:15:32;100082.64;;;2.95;100.00
51526;BME280;37611;51.794;21.590;2024-01-27T06:19:33;100076.13;;;2.94;100.00
51526;BME280;37611;51.794;21.590;2024-01-27T06:23:35;100074.48;;;2.93;100.00
51526;BME280;37611;51.794;21.590;2024-01-27T06:27:37;100078.64;;;2.90;100.00
51526;BME280;37611;51.794;21.590;2024-01-27T06:31:39;100081.42;;;2.90;100.00
51526;BME280;37611;51.794;21.590;2024-01-27T06:35:41;100078.33;;;2.90;100.00
51526;BME280;37611;51.794;21.590;2024-01-27T06:39:43;100078.50;;;2.90;100.00
51526;BME280;37611;51.794;21.590;2024-01-27T06:43:44;100070.17;;;2.93;100.00
51526;BME280;37611;51.794;21.590;2024-01-27T06:47:46;100074.67;;;2.98;100.00
51526;BME280;37611;51.794;21.590;2024-01-27T06:51:48;100076.77;;;3.00;100.00
51526;BME280;37611;51.794;21.590;2024-01-27T06:55:49;100080.30;;;3.04;100.00
51526;BME280;37611;51.794;21.590;2024-01-27T06:59:52;100079.44;;;3.04;100.00
51526;BME280;37611;51.794;21.590;2024-01-27T07:03:54;100078.33;;;3.06;100.00
51526;BME280;37611;51.794;21.590;2024-01-27T07:07:55;100078.98;;;3.06;100.00
51526;BME280;37611;51.794;21.590;2024-01-27T07:11:57;100085.13;;;3.05;100.00
51526;BME280;37611;51.794;21.590;2024-01-27T07:15:59;100092.64;;;3.04;100.00
51526;BME280;37611;51.794;21.590;2024-01-27T07:20:01;100092.60;;;3.04;100.00
51526;BME280;37611;51.794;21.590;2024-01-27T07:24:03;100097.83;;;3.01;100.00
51526;BME280;37611;51.794;21.590;2024-01-27T07:28:05;100104.80;;;2.98;100.00
51526;BME280;37611;51.794;21.590;2024-01-27T07:32:06;100103.50;;;2.93;100.00
51526;BME280;37611;51.794;21.590;2024-01-27T07:36:10;100098.63;;;2.91;100.00
51526;BME280;37611;51.794;21.590;2024-01-27T07:40:13;100104.71;;;2.91;100.00
51526;BME280;37611;51.794;21.590;2024-01-27T07:44:14;100107.98;;;2.88;100.00
51526;BME280;37611;51.794;21.590;2024-01-27T07:48:16;100107.92;;;2.90;100.00
51526;BME280;37611;51.794;21.590;2024-01-27T07:52:18;100112.41;;;2.85;100.00
51526;BME280;37611;51.794;21.590;2024-01-27T07:56:19;100111.60;;;2.76;100.00
51526;BME280;37611;51.794;21.590;2024-01-27T08:00:21;100107.09;;;2.73;100.00
51526;BME280;37611;51.794;21.590;2024-01-27T08:04:23;100108.48;;;2.73;100.00
51526;BME280;37611;51.794;21.590;2024-01-27T08:08:25;100113.69;;;2.70;100.00
51526;BME280;37611;51.794;21.590;2024-01-27T08:12:26;100116.20;;;2.69;100.00
51526;BME280;37611;51.794;21.590;2024-01-27T08:16:28;100123.33;;;2.65;100.00
51526;BME280;37611;51.794;21.590;2024-01-27T08:20:30;100132.06;;;2.66;100.00
51526;BME280;37611;51.794;21.590;2024-01-27T08:24:32;100141.98;;;2.66;100.00
51526;BME280;37611;51.794;21.590;2024-01-27T08:28:33;100141.81;;;2.63;100.00
51526;BME280;37611;51.794;21.590;2024-01-27T08:32:35;100139.88;;;2.55;100.00
51526;BME280;37611;51.794;21.590;2024-01-27T08:36:37;100149.18;;;2.48;100.00
51526;BME280;37611;51.794;21.590;2024-01-27T08:40:39;100146.41;;;2.45;100.00
51526;BME280;37611;51.794;21.590;2024-01-27T08:44:41;100151.52;;;2.41;100.00
51526;BME280;37611;51.794;21.590;2024-01-27T08:48:43;100148.85;;;2.42;100.00
51526;BME280;37611;51.794;21.590;2024-01-27T08:52:45;100153.11;;;2.40;100.00
51526;BME280;37611;51.794;21.590;2024-01-27T08:56:48;100163.19;;;2.39;100.00
51526;BME280;37611;51.794;21.590;2024-01-27T09:00:49;100164.80;;;2.35;100.00
51526;BME280;37611;51.794;21.590;2024-01-27T09:04:51;100165.05;;;2.34;100.00
51526;BME280;37611;51.794;21.590;2024-01-27T09:08:53;100172.79;;;2.32;100.00
51526;BME280;37611;51.794;21.590;2024-01-27T09:12:55;100175.39;;;2.32;100.00
51526;BME280;37611;51.794;21.590;2024-01-27T09:16:56;100175.37;;;2.35;100.00
51526;BME280;37611;51.794;21.590;2024-01-27T09:20:58;100180.96;;;2.40;100.00
51526;BME280;37611;51.794;21.590;2024-01-27T09:25:00;100180.83;;;2.39;100.00
51526;BME280;37611;51.794;21.590;2024-01-27T09:29:02;100185.39;;;2.40;100.00
51526;BME280;37611;51.794;21.590;2024-01-27T09:33:04;100187.88;;;2.42;100.00
51526;BME280;37611;51.794;21.590;2024-01-27T09:37:05;100192.83;;;2.43;100.00
51526;BME280;37611;51.794;21.590;2024-01-27T09:41:08;100194.73;;;2.43;100.00
51526;BME280;37611;51.794;21.590;2024-01-27T09:45:11;100196.91;;;2.44;100.00
51526;BME280;37611;51.794;21.590;2024-01-27T09:49:14;100192.33;;;2.43;100.00
51526;BME280;37611;51.794;21.590;2024-01-27T09:53:15;100189.46;;;2.42;100.00
51526;BME280;37611;51.794;21.590;2024-01-27T09:57:17;100198.53;;;2.43;100.00
51526;BME280;37611;51.794;21.590;2024-01-27T10:01:24;100203.73;;;2.46;100.00
51526;BME280;37611;51.794;21.590;2024-01-27T10:05:27;100203.05;;;2.51;100.00
51526;BME280;37611;51.794;21.590;2024-01-27T10:09:29;100208.05;;;2.54;100.00
51526;BME280;37611;51.794;21.590;2024-01-27T10:13:31;100212.19;;;2.54;100.00
51526;BME280;37611;51.794;21.590;2024-01-27T10:17:33;100219.84;;;2.54;100.00
51526;BME280;37611;51.794;21.590;2024-01-27T10:21:37;100225.70;;;2.54;100.00
51526;BME280;37611;51.794;21.590;2024-01-27T10:25:40;100225.96;;;2.58;100.00
51526;BME280;37611;51.794;21.590;2024-01-27T10:29:52;100225.72;;;2.59;100.00
51526;BME280;37611;51.794;21.590;2024-01-27T10:33:54;100229.61;;;2.58;100.00
51526;BME280;37611;51.794;21.590;2024-01-27T10:37:57;100235.23;;;2.59;100.00
51526;BME280;37611;51.794;21.590;2024-01-27T10:42:02;100243.02;;;2.56;100.00
51526;BME280;37611;51.794;21.590;2024-01-27T10:46:08;100246.73;;;2.58;100.00
51526;BME280;37611;51.794;21.590;2024-01-27T10:50:10;100247.58;;;2.61;100.00
51526;BME280;37611;51.794;21.590;2024-01-27T10:54:20;100249.01;;;2.60;100.00
51526;BME280;37611;51.794;21.590;2024-01-27T10:58:24;100254.30;;;2.64;100.00
51526;BME280;37611;51.794;21.590;2024-01-27T11:02:32;100255.59;;;2.68;100.00
51526;BME280;37611;51.794;21.590;2024-01-27T11:06:34;100256.55;;;2.69;100.00
51526;BME280;37611;51.794;21.590;2024-01-27T11:10:36;100265.11;;;2.74;100.00
51526;BME280;37611;51.794;21.590;2024-01-27T11:14:40;100268.88;;;2.71;100.00
51526;BME280;37611;51.794;21.590;2024-01-27T11:18:42;100272.46;;;2.72;100.00
51526;BME280;37611;51.794;21.590;2024-01-27T11:22:44;100277.55;;;2.71;100.00
51526;BME280;37611;51.794;21.590;2024-01-27T11:26:46;100281.23;;;2.73;100.00
51526;BME280;37611;51.794;21.590;2024-01-27T11:30:48;100287.13;;;2.78;100.00
51526;BME280;37611;51.794;21.590;2024-01-27T11:34:50;100296.55;;;2.85;100.00
51526;BME280;37611;51.794;21.590;2024-01-27T11:38:53;100298.00;;;2.90;100.00
51526;BME280;37611;51.794;21.590;2024-01-27T11:42:56;100301.20;;;2.88;100.00
51526;BME280;37611;51.794;21.590;2024-01-27T11:46:58;100309.30;;;2.86;100.00
51526;BME280;37611;51.794;21.590;2024-01-27T11:51:11;100316.33;;;2.87;100.00
51526;BME280;37611;51.794;21.590;2024-01-27T11:55:14;100322.65;;;2.91;100.00
51526;BME280;37611;51.794;21.590;2024-01-27T11:59:21;100330.10;;;2.93;100.00
51526;BME280;37611;51.794;21.590;2024-01-27T12:03:23;100332.16;;;3.05;100.00
51526;BME280;37611;51.794;21.590;2024-01-27T12:07:26;100339.87;;;3.09;100.00
51526;BME280;37611;51.794;21.590;2024-01-27T12:11:27;100343.14;;;3.15;100.00
51526;BME280;37611;51.794;21.590;2024-01-27T12:15:31;100349.56;;;3.20;100.00
51526;BME280;37611;51.794;21.590;2024-01-27T12:19:33;100362.42;;;3.25;100.00
51526;BME280;37611;51.794;21.590;2024-01-27T12:23:35;100371.85;;;3.23;100.00
51526;BME280;37611;51.794;21.590;2024-01-27T12:27:36;100376.73;;;3.17;100.00
51526;BME280;37611;51.794;21.590;2024-01-27T12:31:39;100381.14;;;3.16;100.00
51526;BME280;37611;51.794;21.590;2024-01-27T12:35:41;100389.05;;;3.20;100.00
51526;BME280;37611;51.794;21.590;2024-01-27T12:39:43;100398.65;;;3.21;100.00
51526;BME280;37611;51.794;21.590;2024-01-27T12:43:48;100405.02;;;3.22;100.00
51526;BME280;37611;51.794;21.590;2024-01-27T12:47:50;100415.55;;;3.22;100.00
51526;BME280;37611;51.794;21.590;2024-01-27T12:51:52;100424.41;;;3.24;100.00
51526;BME280;37611;51.794;21.590;2024-01-27T12:55:54;100430.39;;;3.23;100.00
51526;BME280;37611;51.794;21.590;2024-01-27T12:59:56;100441.59;;;3.15;100.00
51526;BME280;37611;51.794;21.590;2024-01-27T13:03:58;100453.86;;;3.12;100.00
51526;BME280;37611;51.794;21.590;2024-01-27T13:08:00;100457.67;;;3.09;100.00
51526;BME280;37611;51.794;21.590;2024-01-27T13:12:02;100467.83;;;3.07;100.00
51526;BME280;37611;51.794;21.590;2024-01-27T13:16:04;100472.27;;;3.03;100.00
51526;BME280;37611;51.794;21.590;2024-01-27T13:20:06;100483.19;;;2.96;100.00
51526;BME280;37611;51.794;21.590;2024-01-27T13:24:08;100491.25;;;2.94;100.00
51526;BME280;37611;51.794;21.590;2024-01-27T13:28:10;100500.05;;;2.92;100.00
51526;BME280;37611;51.794;21.590;2024-01-27T13:32:14;100507.48;;;2.89;100.00
51526;BME280;37611;51.794;21.590;2024-01-27T13:36:15;100511.61;;;2.87;100.00
51526;BME280;37611;51.794;21.590;2024-01-27T13:40:18;100518.05;;;2.83;100.00
51526;BME280;37611;51.794;21.590;2024-01-27T13:44:19;100523.88;;;2.78;100.00
51526;BME280;37611;51.794;21.590;2024-01-27T13:48:21;100534.73;;;2.73;100.00
51526;BME280;37611;51.794;21.590;2024-01-27T13:52:23;100541.24;;;2.68;100.00
51526;BME280;37611;51.794;21.590;2024-01-27T13:56:25;100550.03;;;2.65;100.00
51526;BME280;37611;51.794;21.590;2024-01-27T14:00:27;100556.81;;;2.65;100.00
51526;BME280;37611;51.794;21.590;2024-01-27T14:04:28;100563.24;;;2.67;100.00
51526;BME280;37611;51.794;21.590;2024-01-27T14:08:30;100572.10;;;2.67;100.00
51526;BME280;37611;51.794;21.590;2024-01-27T14:12:32;100581.80;;;2.66;100.00
51526;BME280;37611;51.794;21.590;2024-01-27T14:16:34;100587.11;;;2.67;100.00
51526;BME280;37611;51.794;21.590;2024-01-27T14:20:35;100598.59;;;2.69;100.00
51526;BME280;37611;51.794;21.590;2024-01-27T14:24:39;100605.06;;;2.68;100.00
51526;BME280;37611;51.794;21.590;2024-01-27T14:28:43;100610.73;;;2.65;100.00
51526;BME280;37611;51.794;21.590;2024-01-27T14:32:46;100618.68;;;2.62;100.00
51526;BME280;37611;51.794;21.590;2024-01-27T14:36:48;100619.71;;;2.59;100.00
51526;BME280;37611;51.794;21.590;2024-01-27T14:40:50;100628.08;;;2.59;100.00
51526;BME280;37611;51.794;21.590;2024-01-27T14:44:51;100640.19;;;2.58;100.00
51526;BME280;37611;51.794;21.590;2024-01-27T14:48:56;100647.83;;;2.58;100.00
51526;BME280;37611;51.794;21.590;2024-01-27T14:52:58;100652.49;;;2.55;100.00
51526;BME280;37611;51.794;21.590;2024-01-27T14:57:00;100663.02;;;2.55;100.00
51526;BME280;37611;51.794;21.590;2024-01-27T15:01:02;100673.02;;;2.55;100.00
51526;BME280;37611;51.794;21.590;2024-01-27T15:05:04;100676.79;;;2.56;100.00
51526;BME280;37611;51.794;21.590;2024-01-27T15:09:07;100677.15;;;2.59;100.00
51526;BME280;37611;51.794;21.590;2024-01-27T15:13:09;100687.20;;;2.62;100.00
51526;BME280;37611;51.794;21.590;2024-01-27T15:17:14;100698.31;;;2.60;100.00
51526;BME280;37611;51.794;21.590;2024-01-27T15:21:16;100706.73;;;2.59;100.00
51526;BME280;37611;51.794;21.590;2024-01-27T15:25:18;100711.30;;;2.57;100.00
51526;BME280;37611;51.794;21.590;2024-01-27T15:29:20;100719.34;;;2.56;100.00
51526;BME280;37611;51.794;21.590;2024-01-27T15:33:21;100729.04;;;2.52;100.00
51526;BME280;37611;51.794;21.590;2024-01-27T15:37:23;100739.38;;;2.49;100.00
51526;BME280;37611;51.794;21.590;2024-01-27T15:41:25;100745.89;;;2.47;100.00
51526;BME280;37611;51.794;21.590;2024-01-27T15:45:27;100754.64;;;2.45;100.00
51526;BME280;37611;51.794;21.590;2024-01-27T15:49:29;100764.92;;;2.43;100.00
51526;BME280;37611;51.794;21.590;2024-01-27T15:53:30;100768.83;;;2.42;100.00
51526;BME280;37611;51.794;21.590;2024-01-27T15:57:32;100784.67;;;2.43;100.00
51526;BME280;37611;51.794;21.590;2024-01-27T16:01:35;100788.58;;;2.41;100.00
51526;BME280;37611;51.794;21.590;2024-01-27T16:05:37;100798.09;;;2.37;100.00
51526;BME280;37611;51.794;21.590;2024-01-27T16:09:39;100805.05;;;2.36;100.00
51526;BME280;37611;51.794;21.590;2024-01-27T16:13:41;100812.46;;;2.37;100.00
51526;BME280;37611;51.794;21.590;2024-01-27T16:17:43;100825.29;;;2.36;100.00
51526;BME280;37611;51.794;21.590;2024-01-27T16:21:45;100830.73;;;2.35;100.00
51526;BME280;37611;51.794;21.590;2024-01-27T16:25:46;100836.87;;;2.33;100.00
51526;BME280;37611;51.794;21.590;2024-01-27T16:29:48;100845.79;;;2.31;100.00
51526;BME280;37611;51.794;21.590;2024-01-27T16:33:50;100854.59;;;2.31;100.00
51526;BME280;37611;51.794;21.590;2024-01-27T16:37:52;100861.27;;;2.29;100.00
51526;BME280;37611;51.794;21.590;2024-01-27T16:41:53;100864.11;;;2.28;100.00
51526;BME280;37611;51.794;21.590;2024-01-27T16:45:55;100873.67;;;2.27;100.00
51526;BME280;37611;51.794;21.590;2024-01-27T16:49:57;100879.04;;;2.26;100.00
51526;BME280;37611;51.794;21.590;2024-01-27T16:53:58;100889.42;;;2.23;100.00
51526;BME280;37611;51.794;21.590;2024-01-27T16:58:01;100889.73;;;2.20;100.00
51526;BME280;37611;51.794;21.590;2024-01-27T17:02:02;100896.52;;;2.15;100.00
51526;BME280;37611;51.794;21.590;2024-01-27T17:06:06;100902.66;;;2.10;100.00
51526;BME280;37611;51.794;21.590;2024-01-27T17:10:08;100909.64;;;2.05;100.00
51526;BME280;37611;51.794;21.590;2024-01-27T17:14:10;100923.40;;;2.03;100.00
51526;BME280;37611;51.794;21.590;2024-01-27T17:18:12;100930.14;;;2.03;100.00
51526;BME280;37611;51.794;21.590;2024-01-27T17:22:14;100937.79;;;2.02;100.00
51526;BME280;37611;51.794;21.590;2024-01-27T17:26:16;100936.59;;;1.98;100.00
51526;BME280;37611;51.794;21.590;2024-01-27T17:30:19;100941.21;;;1.91;100.00
51526;BME280;37611;51.794;21.590;2024-01-27T17:34:21;100947.17;;;1.86;100.00
51526;BME280;37611;51.794;21.590;2024-01-27T17:38:23;100950.40;;;1.84;100.00
51526;BME280;37611;51.794;21.590;2024-01-27T17:42:25;100958.10;;;1.82;100.00
51526;BME280;37611;51.794;21.590;2024-01-27T17:46:26;100964.48;;;1.82;100.00
51526;BME280;37611;51.794;21.590;2024-01-27T17:50:28;100969.11;;;1.82;100.00
51526;BME280;37611;51.794;21.590;2024-01-27T17:54:30;100980.89;;;1.82;100.00
51526;BME280;37611;51.794;21.590;2024-01-27T17:58:32;100987.85;;;1.81;100.00
51526;BME280;37611;51.794;21.590;2024-01-27T18:02:33;100990.88;;;1.78;100.00
51526;BME280;37611;51.794;21.590;2024-01-27T18:06:35;100991.17;;;1.76;100.00
51526;BME280;37611;51.794;21.590;2024-01-27T18:10:38;100996.64;;;1.74;100.00
51526;BME280;37611;51.794;21.590;2024-01-27T18:14:39;101006.23;;;1.71;100.00
51526;BME280;37611;51.794;21.590;2024-01-27T18:18:41;101008.23;;;1.69;100.00
51526;BME280;37611;51.794;21.590;2024-01-27T18:22:43;101013.98;;;1.64;100.00
51526;BME280;37611;51.794;21.590;2024-01-27T18:26:44;101023.88;;;1.63;100.00
51526;BME280;37611;51.794;21.590;2024-01-27T18:30:46;101025.98;;;1.62;100.00
51526;BME280;37611;51.794;21.590;2024-01-27T18:34:48;101028.29;;;1.61;100.00
51526;BME280;37611;51.794;21.590;2024-01-27T18:38:50;101035.36;;;1.61;100.00
51526;BME280;37611;51.794;21.590;2024-01-27T18:42:51;101043.03;;;1.59;100.00
51526;BME280;37611;51.794;21.590;2024-01-27T18:46:53;101051.14;;;1.60;100.00
51526;BME280;37611;51.794;21.590;2024-01-27T18:50:55;101054.02;;;1.57;100.00
51526;BME280;37611;51.794;21.590;2024-01-27T18:54:57;101057.42;;;1.58;100.00
51526;BME280;37611;51.794;21.590;2024-01-27T18:58:59;101063.90;;;1.60;100.00
51526;BME280;37611;51.794;21.590;2024-01-27T19:03:02;101070.89;;;1.58;100.00
51526;BME280;37611;51.794;21.590;2024-01-27T19:07:05;101076.66;;;1.60;100.00
51526;BME280;37611;51.794;21.590;2024-01-27T19:11:07;101076.15;;;1.61;100.00
51526;BME280;37611;51.794;21.590;2024-01-27T19:15:09;101083.42;;;1.60;100.00
51526;BME280;37611;51.794;21.590;2024-01-27T19:19:11;101087.88;;;1.61;100.00
51526;BME280;37611;51.794;21.590;2024-01-27T19:23:12;101084.02;;;1.61;100.00
51526;BME280;37611;51.794;21.590;2024-01-27T19:27:14;101093.50;;;1.58;100.00
51526;BME280;37611;51.794;21.590;2024-01-27T19:31:16;101094.80;;;1.60;100.00
51526;BME280;37611;51.794;21.590;2024-01-27T19:35:18;101096.51;;;1.60;100.00
51526;BME280;37611;51.794;21.590;2024-01-27T19:39:21;101105.66;;;1.60;100.00
51526;BME280;37611;51.794;21.590;2024-01-27T19:43:23;101108.09;;;1.60;100.00
51526;BME280;37611;51.794;21.590;2024-01-27T19:47:25;101117.98;;;1.63;100.00
51526;BME280;37611;51.794;21.590;2024-01-27T19:51:26;101122.05;;;1.65;100.00
51526;BME280;37611;51.794;21.590;2024-01-27T19:55:28;101124.26;;;1.65;100.00
51526;BME280;37611;51.794;21.590;2024-01-27T19:59:30;101125.96;;;1.66;100.00
51526;BME280;37611;51.794;21.590;2024-01-27T20:03:32;101132.73;;;1.65;100.00
51526;BME280;37611;51.794;21.590;2024-01-27T20:07:33;101138.52;;;1.63;100.00
51526;BME280;37611;51.794;21.590;2024-01-27T20:11:35;101141.84;;;1.62;100.00
51526;BME280;37611;51.794;21.590;2024-01-27T20:15:37;101147.52;;;1.63;100.00
51526;BME280;37611;51.794;21.590;2024-01-27T20:19:38;101151.68;;;1.62;100.00
51526;BME280;37611;51.794;21.590;2024-01-27T20:23:40;101155.92;;;1.59;100.00
51526;BME280;37611;51.794;21.590;2024-01-27T20:27:42;101167.51;;;1.59;100.00
51526;BME280;37611;51.794;21.590;2024-01-27T20:31:46;101171.30;;;1.59;100.00
51526;BME280;37611;51.794;21.590;2024-01-27T20:35:48;101181.58;;;1.58;100.00
51526;BME280;37611;51.794;21.590;2024-01-27T20:39:50;101187.01;;;1.59;100.00
51526;BME280;37611;51.794;21.590;2024-01-27T20:43:51;101197.13;;;1.61;100.00
51526;BME280;37611;51.794;21.590;2024-01-27T20:47:53;101202.83;;;1.61;100.00
51526;BME280;37611;51.794;21.590;2024-01-27T20:51:55;101203.33;;;1.62;100.00